Saturday, December 16, 2017, 9:24 PM EST
Back to Local

KLPR, Lorain County Regional Airport

Location: Elyria, OH, United States Lat: 41.35
Local Time: 9:24 PM EST ( 2:24 GMT) Lon: -82.183
Time Zone: US/Eastern Elev: 793 ft

Show me the last for .
Show Decoded

2017-12-16 21:08 METAR KLPR 170208Z AUTO 08003KT 1 3/4SM BR CLR M03/M05 A3011 RMK AO2 T10331050 =
2017-12-16 20:53 METAR KLPR 170153Z AUTO 07005KT 4SM BR CLR M03/M05 A3011 RMK AO2 SLP205 I1001
                 T10281050 =
2017-12-16 19:53 METAR KLPR 170053Z AUTO 08004KT 6SM HZ CLR M02/M05 A3010 RMK AO2 SLP202
                 T10221050 =
2017-12-16 18:53 METAR KLPR 162353Z AUTO 06003KT 9SM CLR M01/M04 A3009 RMK AO2 SLP197 T10061044
                 10044 21011 51027 =
2017-12-16 17:53 METAR KLPR 162253Z AUTO 00000KT 10SM CLR 01/M04 A3007 RMK AO2 SLP191 T00061044 =
2017-12-16 16:53 METAR KLPR 162153Z AUTO 00000KT 10SM CLR 03/M04 A3004 RMK AO2 SLP179 T00331039 =
2017-12-16 15:53 METAR KLPR 162053Z AUTO 26006KT 10SM CLR 04/M04 A3001 RMK AO2 SLP168 T00391039
                 53007 =
2017-12-16 14:53 METAR KLPR 161953Z AUTO 26011KT 10SM OVC100 04/M04 A2999 RMK AO2 SLP163
                 T00391044 =
2017-12-16 13:53 METAR KLPR 161853Z AUTO 25015KT 10SM OVC100 03/M04 A2998 RMK AO2 SLP161
                 T00331044 =
2017-12-16 12:53 METAR KLPR 161753Z AUTO 25010KT 10SM OVC095 03/M04 A2999 RMK AO2 SLP161
                 T00281044 10028 20000 50002 =
2017-12-16 11:53 METAR KLPR 161653Z AUTO 25013KT 10SM FEW060 SCT075 OVC090 02/M04 A3000 RMK AO2
                 SLP166 T00221044 =
2017-12-16 10:53 METAR KLPR 161553Z AUTO 24014KT 10SM BKN065 OVC080 02/M05 A3000 RMK AO2 SLP169
                 T00171050 =
2017-12-16 09:53 METAR KLPR 161453Z AUTO 24014KT 10SM OVC085 02/M06 A2998 RMK AO2 SLP160
                 T00171056 53004 =
2017-12-16 08:53 METAR KLPR 161353Z AUTO 24014KT 10SM OVC085 01/M06 A2997 RMK AO2 SLP158
                 T00111056 =
2017-12-16 07:53 METAR KLPR 161253Z AUTO 23011KT 10SM FEW060 BKN080 OVC100 00/M06 A2997 RMK AO2
                 SLP158 T00001061 =
2017-12-16 06:53 METAR KLPR 161153Z AUTO 24012KT 10SM OVC060 00/M06 A2997 RMK AO2 SLP156 60000
                 T00001061 10000 21022 55001 =
2017-12-16 05:53 METAR KLPR 161053Z AUTO 23010KT 10SM OVC075 M01/M06 A2995 RMK AO2 SNE17 SLP152
                 P0000 T10061061 =
2017-12-16 04:53 METAR KLPR 160953Z AUTO 24012KT 4SM -SN OVC031 M01/M06 A2996 RMK AO2 SNB0857
                 SLP155 P0000 T10111056 =
2017-12-16 03:53 METAR KLPR 160853Z AUTO 24012KT 9SM OVC048 M01/M07 A2997 RMK AO2 SNE49 SLP158
                 P0000 60000 T10111067 50009 =
2017-12-16 02:53 METAR KLPR 160753Z AUTO 25012KT 6SM -SN OVC048 M01/M07 A2997 RMK AO2 SNB22
                 SLP160 P0000 T10111072 =
2017-12-16 01:53 METAR KLPR 160653Z AUTO 25016KT 10SM FEW047 BKN055 OVC070 M02/M08 A2996 RMK AO2
                 SLP154 T10171078 =
2017-12-16 00:53 METAR KLPR 160553Z AUTO 24015G25KT 10SM OVC100 M02/M09 A2994 RMK AO2 SLP149
                 60000 T10221089 11022 21044 58009 =
2017-12-15 23:53 METAR KLPR 160453Z AUTO 24016KT 10SM OVC055 M02/M09 A2997 RMK AO2 SNB06E14
                 SLP158 P0000 T10221094 410221189 =
2017-12-15 22:53 METAR KLPR 160353Z AUTO 25012KT 10SM BKN038 OVC065 M03/M10 A2997 RMK AO2 SLP161
                 T10331100 =
2017-12-15 21:53 METAR KLPR 160253Z AUTO 25011KT 10SM BKN036 OVC060 M04/M11 A2997 RMK AO2 SLP160
                 T10391106 53012 =

Support USWX by starting your Amazon purchase here.